createdAt,value
2022-11-14T00:01:14.333Z,28.05
2022-11-14T00:03:42.299Z,30.13
2022-11-14T00:06:10.542Z,28.42
2022-11-14T00:08:38.428Z,31.60
2022-11-14T00:11:07.874Z,33.53
2022-11-14T00:13:36.883Z,30.35
2022-11-14T00:16:05.011Z,32.95
2022-11-14T00:18:33.036Z,34.20
2022-11-14T00:21:01.063Z,35.90
2022-11-14T00:23:28.933Z,35.17
2022-11-14T00:25:57.089Z,35.67
2022-11-14T00:28:26.411Z,35.17
2022-11-14T00:30:54.351Z,37.17
2022-11-14T00:33:22.301Z,39.70
2022-11-14T00:35:54.181Z,32.72
2022-11-14T00:38:22.259Z,34.53
2022-11-14T00:40:50.370Z,37.55
2022-11-14T00:43:18.254Z,36.03
2022-11-14T00:45:48.464Z,34.17
2022-11-14T00:48:16.609Z,34.78
2022-11-14T00:50:44.709Z,36.97
2022-11-14T00:53:13.099Z,40.78
2022-11-14T00:55:41.123Z,44.13
2022-11-14T00:58:08.962Z,42.50
2022-11-14T01:00:36.982Z,34.35
2022-11-14T01:03:06.325Z,41.28
2022-11-14T01:05:34.477Z,35.38
2022-11-14T01:08:02.381Z,39.90
2022-11-14T01:10:30.252Z,41.63
2022-11-14T01:12:58.103Z,42.25
2022-11-14T01:15:26.043Z,44.80
2022-11-14T01:17:54.036Z,41.67
2022-11-14T01:20:23.697Z,37.75
2022-11-14T01:22:51.553Z,43.25
2022-11-14T01:25:19.447Z,42.20
2022-11-14T01:27:47.297Z,43.25
2022-11-14T01:30:15.563Z,39.83
2022-11-14T01:32:43.460Z,44.03
2022-11-14T01:35:11.329Z,45.55
2022-11-14T01:37:40.496Z,48.22
2022-11-14T01:40:09.537Z,49.50
2022-11-14T01:42:37.460Z,44.05
2022-11-14T01:45:38.532Z,45.63
2022-11-14T01:48:12.225Z,43.88
2022-11-14T01:50:40.143Z,49.08
2022-11-14T01:53:09.339Z,47.90
2022-11-14T01:55:37.282Z,48.40
2022-11-14T01:58:05.179Z,43.08
2022-11-14T02:00:33.080Z,41.17
2022-11-14T02:03:01.936Z,49.58
2022-11-14T02:05:30.841Z,48.47
2022-11-14T02:07:59.340Z,52.22
2022-11-14T02:10:28.758Z,51.08
2022-11-14T02:12:56.802Z,50.22
2022-11-14T02:15:26.249Z,42.17
2022-11-14T02:17:54.177Z,46.00
2022-11-14T02:20:28.515Z,49.17
2022-11-14T02:22:56.623Z,49.92
2022-11-14T02:25:24.593Z,45.88
2022-11-14T02:27:52.812Z,49.75
2022-11-14T02:30:22.851Z,47.25
2022-11-14T02:33:10.485Z,48.72
2022-11-14T02:35:40.167Z,46.08
2022-11-14T02:38:08.076Z,44.63
2022-11-14T02:40:35.980Z,52.45
2022-11-14T02:43:03.870Z,52.70
2022-11-14T02:45:31.745Z,56.78
2022-11-14T02:47:59.668Z,52.67
2022-11-14T02:50:27.609Z,52.50
2022-11-14T02:52:56.884Z,48.13
2022-11-14T02:55:24.800Z,52.38
2022-11-14T02:57:52.694Z,50.90
2022-11-14T03:00:20.827Z,56.22
2022-11-14T03:02:48.755Z,47.95
2022-11-14T03:05:16.718Z,55.50
2022-11-14T03:07:44.591Z,48.78
2022-11-14T03:10:14.112Z,55.60
2022-11-14T03:12:42.022Z,50.80
2022-11-14T03:15:11.211Z,48.08
2022-11-14T03:17:39.199Z,52.78
2022-11-14T03:20:08.187Z,57.70
2022-11-14T03:22:36.065Z,50.10
2022-11-14T03:25:04.159Z,51.78
2022-11-14T03:27:33.370Z,48.50
2022-11-14T03:30:01.327Z,48.25
2022-11-14T03:32:29.206Z,49.45
2022-11-14T03:34:57.054Z,52.15
2022-11-14T03:37:25.017Z,53.88
2022-11-14T03:39:52.923Z,53.25
2022-11-14T03:42:20.773Z,53.20
2022-11-14T03:44:49.989Z,50.97
2022-11-14T03:47:17.844Z,50.60
2022-11-14T03:49:45.719Z,49.67
2022-11-14T03:52:13.712Z,53.20
2022-11-14T03:54:41.560Z,51.78
2022-11-14T03:57:09.410Z,45.83
2022-11-14T03:59:37.267Z,49.38
2022-11-14T04:02:06.464Z,44.47
2022-11-14T04:04:34.354Z,47.10
2022-11-14T04:07:02.310Z,44.22
2022-11-14T04:09:30.232Z,52.25
2022-11-14T04:11:58.118Z,42.80
2022-11-14T04:14:26.032Z,55.22
2022-11-14T04:16:53.923Z,46.05
2022-11-14T04:19:23.157Z,51.10
2022-11-14T04:21:51.085Z,45.00
2022-11-14T04:24:18.971Z,47.75
2022-11-14T04:26:46.908Z,51.72
2022-11-14T04:29:14.757Z,49.08
2022-11-14T04:31:42.617Z,43.80
2022-11-14T04:34:10.489Z,48.22
2022-11-14T04:36:39.762Z,47.10
2022-11-14T04:39:07.759Z,45.78
2022-11-14T04:41:35.665Z,39.78
2022-11-14T04:44:03.648Z,48.50
2022-11-14T04:46:31.507Z,43.17
2022-11-14T04:48:59.357Z,45.88
2022-11-14T04:51:27.295Z,46.13
2022-11-14T04:53:56.533Z,46.50
2022-11-14T04:56:25.498Z,44.22
2022-11-14T04:58:53.371Z,48.83
2022-11-14T05:01:21.267Z,44.28
2022-11-14T05:03:49.238Z,43.80
2022-11-14T05:06:17.133Z,44.47
2022-11-14T05:08:45.011Z,48.08
2022-11-14T05:11:17.524Z,45.63
2022-11-14T05:13:45.648Z,46.20
2022-11-14T05:16:14.307Z,43.22
2022-11-14T05:18:46.831Z,48.65
2022-11-14T05:21:16.310Z,43.25
2022-11-14T05:23:44.238Z,40.03
2022-11-14T05:26:14.214Z,42.30
2022-11-14T05:28:43.434Z,43.25
2022-11-14T05:31:15.031Z,40.75
2022-11-14T05:33:42.896Z,42.08
2022-11-14T05:36:12.980Z,41.67
2022-11-14T05:38:40.865Z,44.90
2022-11-14T05:41:10.186Z,37.33
2022-11-14T05:43:38.134Z,43.40
2022-11-14T05:46:09.028Z,36.78
2022-11-14T05:48:36.969Z,39.67
2022-11-14T05:51:07.095Z,36.78
2022-11-14T05:53:35.676Z,41.65
2022-11-14T05:56:04.185Z,35.08
2022-11-14T05:58:33.057Z,34.88
2022-11-14T06:01:05.655Z,41.83
2022-11-14T06:03:36.145Z,40.08
2022-11-14T06:06:06.280Z,38.28
2022-11-14T06:08:35.271Z,43.92
2022-11-14T06:11:04.756Z,42.08
2022-11-14T06:13:33.115Z,40.72
2022-11-14T06:16:02.266Z,36.45
2022-11-14T06:18:31.062Z,39.17
2022-11-14T06:21:02.251Z,40.25
2022-11-14T06:23:30.472Z,34.45
2022-11-14T06:26:02.181Z,40.58
2022-11-14T06:28:30.546Z,40.03
2022-11-14T06:31:00.071Z,36.40
2022-11-14T06:33:28.259Z,38.28
2022-11-14T06:36:01.134Z,38.83
2022-11-14T06:38:31.812Z,38.40
2022-11-14T06:41:04.455Z,40.13
2022-11-14T06:43:34.341Z,41.75
2022-11-14T06:46:02.804Z,40.70
2022-11-14T06:48:32.506Z,43.08
2022-11-14T06:51:03.125Z,39.70
2022-11-14T06:53:32.408Z,42.75
2022-11-14T06:56:01.577Z,37.38
2022-11-14T06:58:29.827Z,40.33
2022-11-14T07:00:58.588Z,42.72
2022-11-14T07:03:26.712Z,43.28
2022-11-14T07:05:54.643Z,41.22
2022-11-14T07:08:23.879Z,40.63
2022-11-14T07:10:51.872Z,38.65
2022-11-14T07:13:19.757Z,43.65
2022-11-14T07:15:53.747Z,40.83
2022-11-14T07:20:49.476Z,39.28
2022-11-14T07:23:22.526Z,36.45
2022-11-14T07:25:52.204Z,39.75
2022-11-14T07:28:20.389Z,42.83
2022-11-14T07:30:48.220Z,40.13
2022-11-14T07:33:16.153Z,39.33
2022-11-14T07:35:44.124Z,38.88
2022-11-14T07:38:12.002Z,37.28
2022-11-14T07:40:39.997Z,41.47
2022-11-14T07:43:09.252Z,35.10
2022-11-14T07:45:37.141Z,37.67
2022-11-14T07:48:05.352Z,41.65
2022-11-14T07:50:33.214Z,38.60
2022-11-14T07:53:01.057Z,41.63
2022-11-14T07:55:28.957Z,33.75
2022-11-14T07:57:59.902Z,34.70
2022-11-14T08:00:29.247Z,37.78
2022-11-14T08:02:57.126Z,34.65
2022-11-14T08:05:25.012Z,38.10
2022-11-14T08:07:53.368Z,36.67
2022-11-14T08:10:22.224Z,37.88
2022-11-14T08:13:17.585Z,47.97
2022-11-14T08:15:48.711Z,39.67
2022-11-14T08:18:16.573Z,35.95
2022-11-14T08:20:45.702Z,37.22
2022-11-14T08:23:14.466Z,38.17
2022-11-14T08:25:43.019Z,34.30
2022-11-14T08:28:10.945Z,34.30
2022-11-14T08:30:38.919Z,41.17
2022-11-14T08:33:08.813Z,33.10
2022-11-14T08:35:36.690Z,37.80
2022-11-14T08:38:04.973Z,34.10
2022-11-14T08:40:32.804Z,33.10
2022-11-14T08:43:02.103Z,33.67
2022-11-14T08:45:30.123Z,27.77
2022-11-14T08:47:57.999Z,34.10
2022-11-14T08:50:27.312Z,33.45
2022-11-14T08:52:55.210Z,25.33
2022-11-14T08:55:23.146Z,27.98
2022-11-14T08:57:54.647Z,35.92
2022-11-14T09:00:23.155Z,36.50
2022-11-14T09:02:51.103Z,25.35
2022-11-14T09:05:19.073Z,29.42
2022-11-14T09:07:48.284Z,26.42
2022-11-14T09:10:16.535Z,28.33
2022-11-14T09:12:44.431Z,30.63
2022-11-14T09:15:12.810Z,22.65
2022-11-14T09:17:40.713Z,25.70
2022-11-14T09:20:09.214Z,28.67
2022-11-14T09:22:37.031Z,33.45
2022-11-14T09:25:07.184Z,27.80
2022-11-14T09:27:35.300Z,25.13
2022-11-14T09:30:03.188Z,24.83
2022-11-14T09:32:31.017Z,23.27
2022-11-14T09:34:58.864Z,24.05
2022-11-14T09:37:27.058Z,23.52
2022-11-14T09:39:54.927Z,22.13
2022-11-14T09:42:41.550Z,22.25
2022-11-14T09:45:13.215Z,24.75
2022-11-14T09:47:45.210Z,19.27
2022-11-14T09:50:18.719Z,21.15
2022-11-14T09:52:53.621Z,22.30
2022-11-14T09:55:23.956Z,23.02
2022-11-14T09:57:53.173Z,24.92
2022-11-14T10:00:23.698Z,23.33
2022-11-14T10:03:04.394Z,22.70
2022-11-14T10:05:44.009Z,21.55
2022-11-14T10:08:33.310Z,21.73
2022-11-14T10:11:07.132Z,22.00
2022-11-14T10:14:00.601Z,19.92
2022-11-14T10:16:37.779Z,21.90
2022-11-14T10:19:18.231Z,20.40
2022-11-14T10:22:00.575Z,23.38
2022-11-14T10:24:44.872Z,21.38
2022-11-14T10:27:19.499Z,21.30
2022-11-14T10:30:09.861Z,27.20
2022-11-14T10:32:50.692Z,25.05
2022-11-14T10:35:24.019Z,26.17
2022-11-14T10:38:02.329Z,24.95
2022-11-14T10:40:37.461Z,23.08
2022-11-14T10:43:12.063Z,28.90
2022-11-14T10:45:45.124Z,23.13
2022-11-14T10:48:17.183Z,26.83
2022-11-14T10:50:52.470Z,28.85
2022-11-14T10:53:28.176Z,34.42
2022-11-14T10:56:04.334Z,26.85
2022-11-14T10:58:42.212Z,25.20
2022-11-14T11:01:38.557Z,30.65
2022-11-14T11:04:22.365Z,23.52
2022-11-14T11:06:51.820Z,24.60
2022-11-14T11:09:44.799Z,24.88
2022-11-14T11:12:17.789Z,28.95
2022-11-14T11:14:46.966Z,25.30
2022-11-14T11:17:28.418Z,25.42
2022-11-14T11:20:29.435Z,29.08
2022-11-14T11:23:04.562Z,28.85
2022-11-14T11:25:34.087Z,28.45
2022-11-14T11:28:07.326Z,28.65
2022-11-14T11:30:35.558Z,23.33
2022-11-14T11:33:25.848Z,27.08
2022-11-14T11:35:57.739Z,24.67
2022-11-14T11:38:28.095Z,23.42
2022-11-14T11:41:03.297Z,26.58
2022-11-14T11:43:39.175Z,26.00
2022-11-14T11:46:14.624Z,34.38
2022-11-14T11:48:44.800Z,28.58
2022-11-14T11:51:18.204Z,27.27
2022-11-14T11:53:50.903Z,26.50
2022-11-14T11:56:23.529Z,30.02
2022-11-14T11:58:53.097Z,28.50
2022-11-14T12:01:21.786Z,28.77
2022-11-14T12:03:52.894Z,28.65
2022-11-14T12:06:24.943Z,32.13
2022-11-14T12:09:11.469Z,36.25
2022-11-14T12:11:43.809Z,33.55
2022-11-14T12:14:37.078Z,31.02
2022-11-14T12:17:50.842Z,31.58
2022-11-14T12:20:49.412Z,37.05
2022-11-14T12:23:44.799Z,29.90
2022-11-14T12:26:40.737Z,36.83
2022-11-14T12:29:26.675Z,36.30
2022-11-14T12:31:59.179Z,35.45
2022-11-14T12:34:30.645Z,35.72
2022-11-14T12:37:00.545Z,37.00
2022-11-14T12:39:31.059Z,33.28
2022-11-14T12:42:06.874Z,36.25
2022-11-14T12:44:37.928Z,35.83
2022-11-14T12:47:24.718Z,35.92
2022-11-14T12:50:01.791Z,36.58
2022-11-14T12:52:45.939Z,33.97
2022-11-14T12:55:59.697Z,31.55
2022-11-14T12:58:51.183Z,31.80
2022-11-14T13:01:34.827Z,39.55
2022-11-14T13:04:22.788Z,35.58
2022-11-14T13:07:03.412Z,30.17
2022-11-14T13:09:41.778Z,38.85
2022-11-14T13:12:50.621Z,34.95
2022-11-14T13:16:01.956Z,35.05
2022-11-14T13:18:47.574Z,34.70
2022-11-14T13:21:44.744Z,36.83
2022-11-14T13:24:15.930Z,35.60
2022-11-14T13:26:54.937Z,35.80
2022-11-14T13:29:49.893Z,41.00
2022-11-14T13:33:05.717Z,34.53
2022-11-14T13:35:43.092Z,38.13
2022-11-14T13:38:40.278Z,37.95
2022-11-14T13:41:46.883Z,35.15
2022-11-14T13:44:46.755Z,35.47
2022-11-14T13:47:27.308Z,37.67
2022-11-14T13:50:04.328Z,41.10
2022-11-14T13:52:34.458Z,38.92
2022-11-14T13:55:03.422Z,44.95
2022-11-14T13:57:42.887Z,40.00
2022-11-14T14:00:19.964Z,39.45
2022-11-14T14:03:15.772Z,45.20
2022-11-14T14:06:12.242Z,44.00
2022-11-14T14:08:58.918Z,43.10
2022-11-14T14:11:48.097Z,41.35
2022-11-14T14:14:32.815Z,42.75
2022-11-14T14:17:10.699Z,37.00
2022-11-14T14:19:55.524Z,42.10
2022-11-14T14:22:32.355Z,44.40
2022-11-14T14:25:10.151Z,44.22
2022-11-14T14:27:46.121Z,40.63
2022-11-14T14:30:16.702Z,39.83
2022-11-14T14:33:02.946Z,39.58
2022-11-14T14:35:38.915Z,38.17
2022-11-14T14:38:12.918Z,43.13
2022-11-14T14:40:43.178Z,38.53
2022-11-14T14:43:24.788Z,39.28
2022-11-14T14:45:54.894Z,44.38
2022-11-14T14:48:28.458Z,37.60
2022-11-14T14:50:57.894Z,37.83
2022-11-14T14:53:28.466Z,37.28
2022-11-14T14:55:58.740Z,41.78
2022-11-14T14:58:30.504Z,45.83
2022-11-14T15:01:01.300Z,38.53
2022-11-14T15:03:36.900Z,45.83
2022-11-14T15:06:07.702Z,44.30
2022-11-14T15:08:39.563Z,48.05
2022-11-14T15:11:07.968Z,48.40
2022-11-14T15:13:38.665Z,42.58
2022-11-14T15:16:07.602Z,44.97
2022-11-14T15:18:36.992Z,43.40
2022-11-14T15:21:09.944Z,45.55
2022-11-14T15:23:39.422Z,42.72
2022-11-14T15:26:16.991Z,46.58
2022-11-14T15:28:45.366Z,40.05
2022-11-14T15:31:21.395Z,39.58
2022-11-14T15:34:06.284Z,42.55
2022-11-14T15:36:34.162Z,50.67
2022-11-14T15:39:04.914Z,51.10
2022-11-14T15:41:33.157Z,43.95
2022-11-14T15:44:05.279Z,47.63
2022-11-14T15:46:41.608Z,41.90
2022-11-14T15:49:17.663Z,42.78
2022-11-14T15:51:48.352Z,43.85
2022-11-14T15:54:28.547Z,40.60
2022-11-14T15:56:58.932Z,44.35
2022-11-14T15:59:28.295Z,42.58
2022-11-14T16:02:00.532Z,37.33
2022-11-14T16:04:34.245Z,40.38
2022-11-14T16:07:02.290Z,41.00
2022-11-14T16:09:30.331Z,32.20
2022-11-14T16:11:58.320Z,39.72
2022-11-14T16:14:26.179Z,44.20
2022-11-14T16:16:54.022Z,42.58
2022-11-14T16:19:22.909Z,38.75
2022-11-14T16:21:52.267Z,37.35
2022-11-14T16:24:22.725Z,34.45
2022-11-14T16:26:51.138Z,35.15
2022-11-14T16:29:19.010Z,38.50
2022-11-14T16:31:47.557Z,38.88
2022-11-14T16:34:19.092Z,34.05
2022-11-14T16:36:48.647Z,34.40
2022-11-14T16:39:17.961Z,35.58
2022-11-14T16:41:45.825Z,40.13
2022-11-14T16:44:16.676Z,32.92
2022-11-14T16:46:44.719Z,35.80
2022-11-14T16:49:14.906Z,33.15
2022-11-14T16:51:48.299Z,36.90
2022-11-14T16:54:19.064Z,32.95
2022-11-14T16:56:47.571Z,36.58
2022-11-14T16:59:15.813Z,38.58
2022-11-14T17:01:43.865Z,33.47
2022-11-14T17:04:12.620Z,40.88
2022-11-14T17:06:40.563Z,40.72
2022-11-14T17:09:08.529Z,41.72
2022-11-14T17:11:37.713Z,40.50
2022-11-14T17:14:05.688Z,39.13
2022-11-14T17:16:33.571Z,40.85
2022-11-14T17:19:01.557Z,34.25
2022-11-14T17:21:29.635Z,33.30
2022-11-14T17:23:57.805Z,37.53
2022-11-14T17:26:25.903Z,36.78
2022-11-14T17:28:55.128Z,32.53
2022-11-14T17:31:23.013Z,32.88
2022-11-14T17:33:55.615Z,36.40
2022-11-14T17:36:24.510Z,41.08
2022-11-14T17:38:52.481Z,36.40
2022-11-14T17:41:20.628Z,31.75
2022-11-14T17:43:52.392Z,34.70
2022-11-14T17:46:21.667Z,32.40
2022-11-14T17:48:49.960Z,37.53
2022-11-14T17:51:18.312Z,32.53
2022-11-14T17:53:46.955Z,32.78
2022-11-14T17:56:16.192Z,41.22
2022-11-14T17:58:44.879Z,35.00
2022-11-14T18:01:13.946Z,53.03
2022-11-14T18:03:43.541Z,44.30
2022-11-14T18:06:12.658Z,48.88
2022-11-14T18:08:40.967Z,46.65
2022-11-14T18:11:11.116Z,56.22
2022-11-14T18:13:39.698Z,50.88
2022-11-14T18:16:09.479Z,50.72
2022-11-14T18:18:38.154Z,52.47
2022-11-14T18:21:13.819Z,49.58
2022-11-14T18:23:41.887Z,43.58
2022-11-14T18:26:11.159Z,47.30
2022-11-14T18:28:39.289Z,46.22
2022-11-14T18:31:10.637Z,43.05
2022-11-14T18:33:39.026Z,42.47
2022-11-14T18:36:12.131Z,38.92
2022-11-14T18:38:40.442Z,49.53
2022-11-14T18:41:10.273Z,37.25
2022-11-14T18:43:38.173Z,37.13
2022-11-14T18:46:08.387Z,33.28
2022-11-14T18:48:37.389Z,32.47
2022-11-14T18:51:07.488Z,32.13
2022-11-14T18:53:37.916Z,31.90
2022-11-14T18:56:06.484Z,37.22
2022-11-14T18:58:36.047Z,32.40
2022-11-14T19:01:10.824Z,35.60
2022-11-14T19:03:38.954Z,37.40
2022-11-14T19:06:08.400Z,33.47
2022-11-14T19:08:37.735Z,32.60
2022-11-14T19:11:06.672Z,37.35
2022-11-14T19:13:34.880Z,31.75
2022-11-14T19:16:03.492Z,38.20
2022-11-14T19:18:32.270Z,34.63
2022-11-14T19:21:00.880Z,38.50
2022-11-14T19:23:29.731Z,36.70
2022-11-14T19:26:01.382Z,34.33
2022-11-14T19:28:30.303Z,38.10
2022-11-14T19:31:02.965Z,38.90
2022-11-14T19:33:31.470Z,42.17
2022-11-14T19:36:05.436Z,43.88
2022-11-14T19:38:33.477Z,47.17
2022-11-14T19:41:08.483Z,39.75
2022-11-14T19:43:38.579Z,47.25
2022-11-14T19:46:06.998Z,45.00
2022-11-14T19:48:35.731Z,44.33
2022-11-14T19:51:05.626Z,46.35
2022-11-14T19:53:36.060Z,45.45
2022-11-14T19:56:06.096Z,44.05
2022-11-14T19:58:37.039Z,39.38
2022-11-14T20:01:06.641Z,34.85
2022-11-14T20:03:34.861Z,38.58
2022-11-14T20:06:03.254Z,38.88
2022-11-14T20:08:31.640Z,34.88
2022-11-14T20:11:01.019Z,38.40
2022-11-14T20:13:31.768Z,39.80
2022-11-14T20:16:01.312Z,34.70
2022-11-14T20:18:31.248Z,40.92
2022-11-14T20:21:03.740Z,31.60
2022-11-14T20:23:31.934Z,31.83
2022-11-14T20:26:00.229Z,36.97
2022-11-14T20:28:28.136Z,33.83
2022-11-14T20:30:56.067Z,33.40
2022-11-14T20:33:25.263Z,31.77
2022-11-14T20:35:53.130Z,33.20
2022-11-14T20:38:21.124Z,31.90
2022-11-14T20:40:55.211Z,30.83
2022-11-14T20:45:58.191Z,33.97
2022-11-14T20:48:28.815Z,27.92
2022-11-14T20:51:03.789Z,27.75
2022-11-14T20:53:33.107Z,27.63
2022-11-14T20:56:01.801Z,26.33
2022-11-14T20:58:29.954Z,36.25
2022-11-14T21:00:58.247Z,23.60
2022-11-14T21:03:28.208Z,26.55
2022-11-14T21:05:58.314Z,30.88
2022-11-14T21:08:26.247Z,26.75
2022-11-14T21:11:01.360Z,28.40
2022-11-14T21:13:47.209Z,26.92
2022-11-14T21:16:17.432Z,27.95
2022-11-14T21:18:48.258Z,30.27
2022-11-14T21:21:18.278Z,26.88
2022-11-14T21:23:47.398Z,25.25
2022-11-14T21:26:17.164Z,28.08
2022-11-14T21:28:48.210Z,34.10
2022-11-14T21:31:18.245Z,35.25
2022-11-14T21:33:48.756Z,27.30
2022-11-14T21:39:06.909Z,31.35
2022-11-14T21:41:34.980Z,26.83
2022-11-14T21:44:04.065Z,37.35
2022-11-14T21:46:31.963Z,33.05
2022-11-14T21:49:01.157Z,29.77
2022-11-14T21:51:30.063Z,32.85
2022-11-14T21:53:59.364Z,34.08
2022-11-14T21:56:28.668Z,35.10
2022-11-14T21:59:11.480Z,34.88
2022-11-14T22:01:57.653Z,34.35
2022-11-14T22:04:27.236Z,35.30
2022-11-14T22:06:55.845Z,33.05
2022-11-14T22:09:23.895Z,30.23
2022-11-14T22:11:51.797Z,33.78
2022-11-14T22:14:19.667Z,32.15
2022-11-14T22:16:47.538Z,28.88
2022-11-14T22:19:15.407Z,32.95
2022-11-14T22:21:44.606Z,30.63
2022-11-14T22:24:12.569Z,35.78
2022-11-14T22:26:41.358Z,32.45
2022-11-14T22:29:09.478Z,37.05
2022-11-14T22:31:38.791Z,34.97
2022-11-14T22:34:06.989Z,31.83
2022-11-14T22:36:34.878Z,33.95
2022-11-14T22:39:04.925Z,31.73
2022-11-14T22:41:34.045Z,34.67
2022-11-14T22:44:02.646Z,39.55
2022-11-14T22:46:30.691Z,31.70
2022-11-14T22:48:59.182Z,34.00
2022-11-14T22:51:28.482Z,38.63
2022-11-14T22:53:57.639Z,38.42
2022-11-14T22:56:29.492Z,39.10
2022-11-14T22:58:59.375Z,43.28
2022-11-14T23:01:28.680Z,37.63
2022-11-14T23:03:58.478Z,41.78
2022-11-14T23:06:26.950Z,41.15
2022-11-14T23:08:55.464Z,40.92
2022-11-14T23:11:25.773Z,37.67
2022-11-14T23:13:57.224Z,37.33
2022-11-14T23:16:26.839Z,31.38
2022-11-14T23:18:55.609Z,37.83
2022-11-14T23:21:25.766Z,36.92
2022-11-14T23:23:54.486Z,37.92
2022-11-14T23:26:22.623Z,43.03
2022-11-14T23:28:50.564Z,35.42
2022-11-14T23:31:20.011Z,40.40
2022-11-14T23:33:48.293Z,34.25
2022-11-14T23:36:16.844Z,43.88
2022-11-14T23:38:44.866Z,32.72
2022-11-14T23:41:18.358Z,39.35
2022-11-14T23:43:46.738Z,42.20
2022-11-14T23:46:14.714Z,43.85
2022-11-14T23:48:44.069Z,38.95
2022-11-14T23:51:13.635Z,39.58
2022-11-14T23:53:41.716Z,50.83
2022-11-14T23:56:13.636Z,42.90
2022-11-14T23:58:42.177Z,48.80
